Time;durP1;ratioP1;P1;durP2;ratioP2;P2;SDS_P1;SDS_P2;PMS_P1;PMS_P2;Temp;Humidity;BMP_temperature;BMP_pressure;BME280_temperature;BME280_humidity;BME280_pressure;Samples;Min_cycle;Max_cycle;Signal;HPM_P1;HPM_P2
2022/05/08 00:00:34;;;;;;;16.03;13.20;;;11.00;99.90;;;;;;4980972;28;20220;-36
2022/05/08 00:03:00;;;;;;;14.63;13.13;;;11.00;99.90;;;;;;4973631;28;20185;-37
2022/05/08 00:05:26;;;;;;;14.63;13.13;;;11.00;99.90;;;;;;4973193;28;20262;-36
2022/05/08 00:07:52;;;;;;;16.00;13.47;;;11.00;99.90;;;;;;4989590;28;20188;-36
2022/05/08 00:10:19;;;;;;;14.93;13.33;;;11.00;99.90;;;;;;4973522;28;20188;-36
2022/05/08 00:12:45;;;;;;;14.17;12.77;;;10.90;99.90;;;;;;4972839;28;20227;-36
2022/05/08 00:15:13;;;;;;;15.03;13.53;;;11.00;99.90;;;;;;4973298;28;20189;-36
2022/05/08 00:17:39;;;;;;;14.57;13.07;;;11.00;99.90;;;;;;4973072;28;20223;-36
2022/05/08 00:20:07;;;;;;;14.83;13.33;;;10.80;99.90;;;;;;4972910;28;20187;-36
2022/05/08 00:22:33;;;;;;;15.63;13.00;;;10.70;99.90;;;;;;4973107;28;20232;-35
2022/05/08 00:25:03;;;;;;;15.87;13.80;;;10.70;99.90;;;;;;4973391;28;20208;-36
2022/05/08 00:27:29;;;;;;;15.43;13.83;;;10.60;99.90;;;;;;4973121;28;20192;-36
2022/05/08 00:29:56;;;;;;;14.30;12.93;;;10.50;99.90;;;;;;4972770;28;20192;-35
2022/05/08 00:32:22;;;;;;;14.63;13.23;;;10.60;99.90;;;;;;4972935;28;20184;-36
2022/05/08 00:34:48;;;;;;;14.90;13.20;;;10.60;99.90;;;;;;4972942;28;20212;-36
2022/05/08 00:37:14;;;;;;;16.20;14.67;;;10.60;99.90;;;;;;4972752;28;20204;-36
2022/05/08 00:39:40;;;;;;;16.13;13.77;;;10.50;99.90;;;;;;4972948;28;20180;-36
2022/05/08 00:42:07;;;;;;;16.13;14.53;;;10.40;99.90;;;;;;4972818;28;20180;-36
2022/05/08 00:44:32;;;;;;;15.20;13.53;;;10.30;99.90;;;;;;4972567;28;20181;-37
2022/05/08 00:46:58;;;;;;;16.40;14.30;;;10.20;99.90;;;;;;4972826;28;20199;-36
2022/05/08 00:49:24;;;;;;;15.53;13.93;;;10.20;99.90;;;;;;4972573;28;20264;-35
2022/05/08 00:51:50;;;;;;;14.87;13.40;;;10.10;99.90;;;;;;4972329;28;20239;-36
2022/05/08 00:54:17;;;;;;;15.90;14.20;;;10.10;99.90;;;;;;4972687;28;20571;-36
2022/05/08 00:56:44;;;;;;;17.80;15.07;;;10.10;99.90;;;;;;4972465;28;20267;-36
2022/05/08 00:59:10;;;;;;;15.90;14.30;;;10.10;99.90;;;;;;4972675;28;20188;-35
2022/05/08 01:01:36;;;;;;;15.50;14.00;;;10.00;99.90;;;;;;5007996;28;20266;-35
2022/05/08 01:04:02;;;;;;;14.30;12.80;;;10.10;99.90;;;;;;4991875;28;20175;-36
2022/05/08 01:06:30;;;;;;;14.90;13.50;;;10.10;99.90;;;;;;5007502;28;20215;-36
2022/05/08 01:08:57;;;;;;;17.20;14.00;;;10.20;99.90;;;;;;4991603;28;20190;-35
2022/05/08 01:11:23;;;;;;;16.43;13.77;;;10.20;99.90;;;;;;5007961;28;20187;-36
2022/05/08 01:13:48;;;;;;;15.87;14.27;;;10.20;99.90;;;;;;4991483;28;20180;-35
2022/05/08 01:16:19;;;;;;;16.13;14.43;;;10.20;99.90;;;;;;4991419;28;20199;-36
2022/05/08 01:18:48;;;;;;;14.63;13.13;;;10.10;99.90;;;;;;4991386;28;20238;-36
2022/05/08 01:21:16;;;;;;;15.57;14.07;;;10.10;99.90;;;;;;4992924;28;20172;-36
2022/05/08 01:23:43;;;;;;;17.63;14.30;;;10.20;99.90;;;;;;4991553;28;20180;-36
2022/05/08 01:26:09;;;;;;;17.50;14.10;;;10.20;99.90;;;;;;4990555;28;20192;-36
2022/05/08 01:28:35;;;;;;;14.80;13.40;;;10.30;99.90;;;;;;4991180;28;20648;-36
2022/05/08 01:31:01;;;;;;;15.87;14.20;;;10.30;99.90;;;;;;4991183;28;20203;-35
2022/05/08 01:33:27;;;;;;;15.57;13.97;;;10.30;99.90;;;;;;5007303;28;20179;-36
2022/05/08 01:35:53;;;;;;;15.77;14.13;;;10.30;99.90;;;;;;5007128;28;20199;-35
2022/05/08 01:38:21;;;;;;;15.20;13.27;;;10.30;99.90;;;;;;4992472;28;20172;-36
2022/05/08 01:40:47;;;;;;;16.13;14.43;;;10.30;99.90;;;;;;4992356;28;20176;-36
2022/05/08 01:43:14;;;;;;;14.83;13.30;;;10.30;99.90;;;;;;5007208;28;20181;-36
2022/05/08 01:45:41;;;;;;;15.57;13.97;;;10.30;99.90;;;;;;4974233;28;20211;-36
2022/05/08 01:48:22;;;;;;;15.60;14.00;;;10.30;99.90;;;;;;4990738;28;20183;-40
2022/05/08 01:50:57;;;;;;;15.50;14.00;;;10.40;99.90;;;;;;5007118;28;20187;-36
2022/05/08 01:53:34;;;;;;;15.53;14.03;;;10.40;99.90;;;;;;4990740;28;20183;-36
2022/05/08 01:56:02;;;;;;;14.83;13.30;;;10.40;99.90;;;;;;4990934;28;20250;-35
2022/05/08 01:58:29;;;;;;;16.27;13.77;;;10.30;99.90;;;;;;4990804;28;20211;-35
2022/05/08 02:00:57;;;;;;;14.73;13.27;;;10.10;99.90;;;;;;5007086;28;20226;-35
2022/05/08 02:03:24;;;;;;;14.67;13.17;;;10.00;99.90;;;;;;4990758;28;20192;-36
2022/05/08 02:05:51;;;;;;;14.40;13.00;;;9.80;99.90;;;;;;4991640;28;20203;-35
2022/05/08 02:08:17;;;;;;;15.13;13.63;;;9.70;99.90;;;;;;4990674;28;20180;-35
2022/05/08 02:10:47;;;;;;;18.57;13.40;;;9.60;99.90;;;;;;4991785;28;20215;-36
2022/05/08 02:13:13;;;;;;;15.90;14.13;;;9.60;99.90;;;;;;4990706;28;20184;-35
2022/05/08 02:15:39;;;;;;;15.77;14.17;;;9.40;99.90;;;;;;4990387;28;20200;-37
2022/05/08 02:18:07;;;;;;;16.80;14.83;;;9.30;99.90;;;;;;4990683;28;20211;-37
2022/05/08 02:20:34;;;;;;;16.07;14.47;;;9.30;99.90;;;;;;4990300;28;20183;-35
2022/05/08 02:22:59;;;;;;;15.87;14.27;;;9.20;99.90;;;;;;4990252;28;20184;-36
2022/05/08 02:25:26;;;;;;;14.63;13.23;;;9.20;99.90;;;;;;5006511;28;20215;-35
2022/05/08 02:27:52;;;;;;;15.57;14.07;;;9.20;99.90;;;;;;4990452;28;20187;-36
2022/05/08 02:30:20;;;;;;;15.00;13.40;;;9.40;99.90;;;;;;5006736;28;20195;-36
2022/05/08 02:32:47;;;;;;;16.90;14.80;;;9.50;99.90;;;;;;5006741;28;20183;-36
2022/05/08 02:35:13;;;;;;;17.07;15.40;;;9.50;99.90;;;;;;4990088;28;20266;-35
2022/05/08 02:37:41;;;;;;;16.83;15.03;;;9.40;99.90;;;;;;4990004;28;20215;-36
2022/05/08 02:40:09;;;;;;;16.23;14.60;;;9.40;99.90;;;;;;4990046;28;20178;-35
2022/05/08 02:42:36;;;;;;;16.23;14.63;;;9.30;99.90;;;;;;5006656;28;20180;-36
2022/05/08 02:45:03;;;;;;;17.73;15.33;;;9.30;99.90;;;;;;4990403;28;20744;-36
2022/05/08 02:47:29;;;;;;;17.00;15.23;;;9.30;99.90;;;;;;4990212;28;20184;-37
2022/05/08 02:49:55;;;;;;;15.97;14.43;;;9.30;99.90;;;;;;4973717;28;20190;-36
2022/05/08 02:52:20;;;;;;;17.23;15.13;;;9.30;99.90;;;;;;4990303;28;20215;-36
2022/05/08 02:54:46;;;;;;;16.03;14.43;;;9.30;99.90;;;;;;4989823;28;20377;-37
2022/05/08 03:00:08;;;;;;;15.20;13.70;;;9.40;99.90;;;;;;4991208;28;20184;-37
2022/05/08 03:02:35;;;;;;;15.20;13.70;;;9.40;99.90;;;;;;4990116;28;20179;-37
2022/05/08 03:05:04;;;;;;;14.67;13.17;;;9.40;99.90;;;;;;4989655;28;20211;-35
2022/05/08 03:07:30;;;;;;;15.20;13.73;;;9.30;99.90;;;;;;4990886;28;20192;-36
2022/05/08 03:09:56;;;;;;;14.07;12.63;;;9.30;99.90;;;;;;5006766;28;20183;-36
2022/05/08 03:12:23;;;;;;;14.33;12.27;;;9.30;99.90;;;;;;5006256;28;20180;-36
2022/05/08 03:14:49;;;;;;;12.73;11.43;;;9.20;99.90;;;;;;4990027;28;20212;-37
2022/05/08 03:17:16;;;;;;;14.37;12.97;;;9.10;99.90;;;;;;4989825;28;20232;-36
2022/05/08 03:19:42;;;;;;;14.23;12.83;;;9.00;99.90;;;;;;4989629;28;20698;-36
2022/05/08 03:22:08;;;;;;;14.70;13.13;;;9.00;99.90;;;;;;5006454;28;20187;-37
2022/05/08 03:24:33;;;;;;;15.30;13.70;;;9.00;99.90;;;;;;4973662;28;20219;-36
2022/05/08 03:27:00;;;;;;;15.27;13.77;;;9.00;99.90;;;;;;4989892;28;20192;-36
2022/05/08 03:29:26;;;;;;;16.53;13.83;;;9.00;99.90;;;;;;5005857;28;20207;-37
2022/05/08 03:31:53;;;;;;;15.13;13.73;;;9.10;99.90;;;;;;4989728;28;20283;-36
2022/05/08 03:34:21;;;;;;;14.37;12.87;;;9.00;99.90;;;;;;4989538;28;20211;-37
2022/05/08 03:36:47;;;;;;;14.57;13.03;;;9.00;99.90;;;;;;4989670;28;20227;-36
2022/05/08 03:39:13;;;;;;;14.43;12.93;;;8.90;99.90;;;;;;4990946;28;20186;-36
2022/05/08 03:41:39;;;;;;;15.67;13.13;;;8.90;99.90;;;;;;5006007;28;20274;-36
2022/05/08 03:44:05;;;;;;;13.83;12.37;;;8.80;99.90;;;;;;4989817;28;20195;-36
2022/05/08 03:46:31;;;;;;;12.83;11.50;;;8.70;99.90;;;;;;4991249;28;20664;-35
2022/05/08 03:48:56;;;;;;;14.37;12.90;;;8.50;99.90;;;;;;4991170;28;20222;-36
2022/05/08 03:51:22;;;;;;;13.93;12.53;;;8.60;99.90;;;;;;4993230;28;20198;-36
2022/05/08 03:53:48;;;;;;;13.80;12.40;;;8.50;99.90;;;;;;4993552;28;20205;-36
2022/05/08 03:56:15;;;;;;;13.70;12.33;;;8.50;99.90;;;;;;4993017;28;20211;-36
2022/05/08 03:58:41;;;;;;;12.90;11.70;;;8.50;99.90;;;;;;5009451;28;20275;-36
2022/05/08 04:01:07;;;;;;;12.60;11.30;;;8.30;99.90;;;;;;4992968;28;20191;-36
2022/05/08 04:03:33;;;;;;;12.60;11.17;;;8.20;99.90;;;;;;5008919;28;20190;-36
2022/05/08 04:05:59;;;;;;;12.73;11.43;;;8.10;99.90;;;;;;4993341;28;20308;-38
2022/05/08 04:08:25;;;;;;;14.53;12.53;;;8.10;99.90;;;;;;4976647;28;20309;-39
2022/05/08 04:10:51;;;;;;;14.27;11.97;;;8.10;99.90;;;;;;4976223;28;20175;-39
2022/05/08 04:13:17;;;;;;;14.67;12.90;;;8.20;99.90;;;;;;4992727;28;20189;-37
2022/05/08 04:18:27;;;;;;;14.70;13.20;;;8.30;99.90;;;;;;4994124;28;20249;-40
2022/05/08 04:20:53;;;;;;;15.63;13.53;;;8.40;99.90;;;;;;4992321;28;20611;-41
2022/05/08 04:26:03;;;;;;;15.20;13.70;;;8.50;99.90;;;;;;4992489;28;20290;-39
2022/05/08 04:28:29;;;;;;;18.00;15.47;;;8.40;99.90;;;;;;4992526;28;20262;-38
2022/05/08 04:30:55;;;;;;;16.40;14.77;;;8.10;99.90;;;;;;4975859;28;20226;-38
2022/05/08 04:33:21;;;;;;;16.67;14.97;;;8.10;99.90;;;;;;4992196;28;20607;-38
2022/05/08 04:35:47;;;;;;;15.23;13.63;;;8.00;99.90;;;;;;4993475;28;20195;-38
2022/05/08 04:38:12;;;;;;;14.47;12.97;;;7.90;99.90;;;;;;4976365;28;20219;-37
2022/05/08 04:40:42;;;;;;;14.97;12.60;;;7.90;99.90;;;;;;4976387;28;20551;-39
2022/05/08 04:43:08;;;;;;;13.83;12.53;;;7.90;99.90;;;;;;4975916;28;20641;-41
2022/05/08 04:45:34;;;;;;;13.30;11.93;;;7.90;99.90;;;;;;4992121;28;20202;-43
2022/05/08 04:48:00;;;;;;;13.10;11.80;;;8.00;99.90;;;;;;4992161;28;20197;-37
2022/05/08 04:50:26;;;;;;;14.47;11.97;;;8.10;99.90;;;;;;4975470;28;20265;-38
2022/05/08 04:52:51;;;;;;;13.17;11.80;;;8.10;99.90;;;;;;5007851;28;20187;-37
2022/05/08 04:55:17;;;;;;;14.67;12.47;;;8.20;99.90;;;;;;4991705;28;20293;-39
2022/05/08 04:57:43;;;;;;;12.77;11.27;;;8.30;99.90;;;;;;4990293;28;20203;-37
2022/05/08 05:00:09;;;;;;;12.47;11.17;;;8.40;99.90;;;;;;4991406;28;20256;-38
2022/05/08 05:02:35;;;;;;;12.67;10.90;;;8.40;99.90;;;;;;4975079;28;20187;-38
2022/05/08 05:05:01;;;;;;;14.40;12.93;;;8.60;99.90;;;;;;4991606;28;20297;-39
2022/05/08 05:07:27;;;;;;;13.73;12.03;;;8.60;99.90;;;;;;4975573;28;20182;-38
2022/05/08 05:09:53;;;;;;;15.57;12.43;;;8.70;99.90;;;;;;4974725;28;20193;-38
2022/05/08 05:12:19;;;;;;;15.00;12.73;;;8.80;99.90;;;;;;4974879;28;20191;-38
2022/05/08 05:14:45;;;;;;;13.60;12.07;;;8.80;99.90;;;;;;4990580;28;20207;-38
2022/05/08 05:17:11;;;;;;;13.13;11.83;;;8.90;99.90;;;;;;4975401;28;20222;-38
2022/05/08 05:19:37;;;;;;;10.43;9.43;;;9.00;99.90;;;;;;4991431;28;20179;-39
2022/05/08 05:22:03;;;;;;;10.57;9.57;;;9.00;99.90;;;;;;4991463;28;20190;-38
2022/05/08 05:24:30;;;;;;;9.50;8.60;;;9.00;99.90;;;;;;4991524;28;20258;-38
2022/05/08 05:26:56;;;;;;;10.00;9.00;;;9.00;99.90;;;;;;4991147;28;20194;-38
2022/05/08 05:29:22;;;;;;;9.87;8.87;;;9.10;99.90;;;;;;4991188;28;20180;-38
2022/05/08 05:31:48;;;;;;;11.13;9.00;;;9.10;99.90;;;;;;4991054;28;20179;-37
2022/05/08 05:34:14;;;;;;;9.13;8.33;;;9.20;99.90;;;;;;5007510;28;20547;-38
2022/05/08 05:36:40;;;;;;;9.63;8.70;;;9.20;99.90;;;;;;4974796;28;20212;-38
2022/05/08 05:39:06;;;;;;;11.23;9.27;;;9.20;99.90;;;;;;4991137;28;20210;-38
2022/05/08 05:41:33;;;;;;;9.40;8.07;;;9.20;99.90;;;;;;4990857;28;20207;-37
2022/05/08 05:44:03;;;;;;;10.97;9.60;;;9.30;99.90;;;;;;4991208;28;20215;-38
2022/05/08 05:49:16;;;;;;;16.40;10.70;;;9.40;99.90;;;;;;4990638;28;20183;-38
2022/05/08 05:51:42;;;;;;;11.43;9.73;;;9.50;99.90;;;;;;4990840;28;20184;-38
2022/05/08 05:54:08;;;;;;;11.77;10.50;;;9.50;99.90;;;;;;4990778;28;20180;-38
2022/05/08 05:56:33;;;;;;;12.77;8.87;;;9.60;99.90;;;;;;4990846;28;20222;-38
2022/05/08 05:58:59;;;;;;;9.40;8.50;;;9.60;99.90;;;;;;5006775;28;20183;-39
2022/05/08 06:01:25;;;;;;;9.10;8.20;;;9.70;99.90;;;;;;4990661;28;20549;-38
2022/05/08 06:03:51;;;;;;;8.97;8.10;;;9.70;99.90;;;;;;4990574;28;20283;-38
2022/05/08 06:06:17;;;;;;;8.73;7.83;;;9.80;99.90;;;;;;4989831;28;20207;-38
2022/05/08 06:08:43;;;;;;;9.17;8.27;;;9.80;99.90;;;;;;4988140;28;20176;-36
2022/05/08 06:11:09;;;;;;;9.10;8.10;;;9.80;99.90;;;;;;4990314;28;20275;-35
2022/05/08 06:13:35;;;;;;;8.53;7.73;;;9.90;99.90;;;;;;5023315;28;20274;-38
2022/05/08 06:16:01;;;;;;;9.70;8.70;;;10.00;99.90;;;;;;4990402;28;20196;-37
2022/05/08 06:18:27;;;;;;;12.13;8.97;;;10.00;99.90;;;;;;4990475;28;20225;-37
2022/05/08 06:20:54;;;;;;;12.97;9.43;;;10.10;99.90;;;;;;5022984;28;20234;-38
2022/05/08 06:23:20;;;;;;;10.97;9.70;;;10.10;99.90;;;;;;5006742;28;20179;-38
2022/05/08 06:25:47;;;;;;;12.10;9.47;;;10.20;99.90;;;;;;5006977;28;20218;-38
2022/05/08 06:28:19;;;;;;;9.60;8.67;;;10.20;99.90;;;;;;5006820;28;20180;-37
2022/05/08 06:30:46;;;;;;;10.93;8.83;;;10.30;99.90;;;;;;4991385;28;20195;-40
2022/05/08 06:33:12;;;;;;;10.33;9.10;;;10.40;99.90;;;;;;4990383;28;20188;-37
2022/05/08 06:35:39;;;;;;;10.20;9.10;;;10.40;99.90;;;;;;5006326;28;20200;-37
2022/05/08 06:38:10;;;;;;;9.90;8.90;;;10.40;99.90;;;;;;4989526;28;20231;-39
2022/05/08 06:40:37;;;;;;;11.13;10.03;;;10.50;99.90;;;;;;4990107;28;20274;-37
2022/05/08 06:43:03;;;;;;;9.77;8.87;;;10.50;99.90;;;;;;5006234;28;20226;-37
2022/05/08 06:45:29;;;;;;;11.93;9.90;;;10.60;99.90;;;;;;4990253;28;20200;-37
2022/05/08 06:47:56;;;;;;;10.03;9.00;;;10.60;99.90;;;;;;4990183;28;20218;-37
2022/05/08 06:50:22;;;;;;;10.10;9.13;;;10.60;99.90;;;;;;4989511;28;20188;-38
2022/05/08 06:52:48;;;;;;;10.83;9.73;;;10.70;99.90;;;;;;4989830;28;20192;-38
2022/05/08 06:55:13;;;;;;;11.13;9.30;;;10.80;99.90;;;;;;4990772;28;20211;-39
2022/05/08 06:57:40;;;;;;;10.50;9.50;;;10.90;99.90;;;;;;4989742;28;20231;-38
2022/05/08 07:03:05;;;;;;;9.70;8.77;;;11.10;99.90;;;;;;4978367;28;20188;-40
2022/05/08 07:05:32;;;;;;;10.77;9.67;;;11.20;99.90;;;;;;4986527;28;20244;-39
2022/05/08 07:07:58;;;;;;;10.97;9.87;;;11.30;99.90;;;;;;4978422;28;20184;-38
2022/05/08 07:10:24;;;;;;;10.57;9.43;;;11.40;99.90;;;;;;4989455;28;20239;-38
2022/05/08 07:12:50;;;;;;;10.17;8.80;;;11.50;99.90;;;;;;4989612;28;20195;-37
2022/05/08 07:15:16;;;;;;;11.57;8.97;;;11.60;99.90;;;;;;4989854;28;20232;-37
2022/05/08 07:17:42;;;;;;;10.80;9.80;;;11.70;99.90;;;;;;5006528;28;20219;-39
2022/05/08 07:20:09;;;;;;;12.17;10.87;;;11.80;99.90;;;;;;5006010;28;20188;-38
2022/05/08 07:22:35;;;;;;;10.23;9.23;;;11.90;99.90;;;;;;4989569;28;20244;-36
2022/05/08 07:25:02;;;;;;;10.70;9.60;;;12.10;99.90;;;;;;4990878;28;20268;-35
2022/05/08 07:27:29;;;;;;;11.57;10.47;;;12.10;99.90;;;;;;4993504;28;20181;-35
2022/05/08 07:29:55;;;;;;;10.77;9.80;;;12.20;99.90;;;;;;4976674;28;20206;-35
2022/05/08 07:32:21;;;;;;;10.67;9.67;;;12.20;99.90;;;;;;5009411;28;20197;-38
2022/05/08 07:37:31;;;;;;;13.97;10.03;;;12.10;99.90;;;;;;4992904;28;20211;-40
2022/05/08 07:39:57;;;;;;;11.30;10.20;;;12.10;99.90;;;;;;4976540;28;20182;-38
2022/05/08 07:42:31;;;;;;;11.33;10.33;;;12.20;99.90;;;;;;4992242;28;20229;-38
2022/05/08 07:44:57;;;;;;;12.33;11.03;;;12.20;99.90;;;;;;4994133;28;20194;-38
2022/05/08 07:47:24;;;;;;;11.47;10.40;;;12.40;99.90;;;;;;4992561;28;20235;-38
2022/05/08 07:49:50;;;;;;;12.33;11.10;;;12.50;99.90;;;;;;4992889;28;20190;-36
2022/05/08 07:52:15;;;;;;;12.10;10.90;;;12.60;99.90;;;;;;4993009;28;20201;-36
2022/05/08 07:54:44;;;;;;;13.37;12.07;;;12.80;99.90;;;;;;4993721;28;20193;-35
2022/05/08 07:57:09;;;;;;;12.90;11.60;;;13.00;99.90;;;;;;4977142;28;20230;-39
2022/05/08 07:59:35;;;;;;;14.47;12.20;;;13.20;99.90;;;;;;4993294;28;20183;-37
2022/05/08 08:02:02;;;;;;;14.10;12.30;;;13.30;99.90;;;;;;4991840;28;20188;-38
2022/05/08 08:04:29;;;;;;;13.47;12.17;;;13.50;99.90;;;;;;4992402;28;20183;-39
2022/05/08 08:06:54;;;;;;;13.53;12.13;;;13.70;99.90;;;;;;4992951;28;20195;-38
2022/05/08 08:09:20;;;;;;;13.70;12.40;;;13.70;99.90;;;;;;4992250;28;20182;-41
2022/05/08 08:11:47;;;;;;;13.57;12.07;;;13.90;99.90;;;;;;4992563;28;20172;-41
2022/05/08 08:14:13;;;;;;;14.87;13.37;;;14.10;99.90;;;;;;4976340;28;20188;-38
2022/05/08 08:16:39;;;;;;;14.00;12.63;;;14.30;99.90;;;;;;4992509;28;20211;-37
2022/05/08 08:19:05;;;;;;;16.90;13.67;;;14.40;99.90;;;;;;4992476;28;20195;-36
2022/05/08 08:21:32;;;;;;;14.73;13.33;;;14.70;99.90;;;;;;4976693;28;20187;-36
2022/05/08 08:23:59;;;;;;;13.63;12.33;;;15.00;99.90;;;;;;4992363;28;20184;-37
2022/05/08 08:26:25;;;;;;;15.93;12.10;;;15.20;99.90;;;;;;4995478;28;20192;-38
2022/05/08 08:28:51;;;;;;;12.33;11.13;;;15.50;99.90;;;;;;4977773;28;20180;-37
2022/05/08 08:31:17;;;;;;;14.97;12.90;;;15.80;99.90;;;;;;4994856;28;20198;-37
2022/05/08 08:33:44;;;;;;;14.03;12.63;;;16.00;99.90;;;;;;4993990;28;20185;-36
2022/05/08 08:36:11;;;;;;;14.07;12.77;;;16.30;99.90;;;;;;5009141;28;20278;-37
2022/05/08 08:38:38;;;;;;;14.47;12.97;;;16.50;99.90;;;;;;4992123;28;20275;-38
2022/05/08 08:41:05;;;;;;;14.93;13.03;;;16.80;99.90;;;;;;4992480;28;20182;-36
2022/05/08 08:49:09;;;;;;;11.93;10.82;;;17.70;99.90;;;;;;5011575;28;20752;-40
2022/05/08 08:51:36;;;;;;;12.02;10.55;;;18.00;99.90;;;;;;4991667;28;20180;-38
2022/05/08 08:54:03;;;;;;;11.27;10.13;;;18.20;99.90;;;;;;4991613;28;20179;-37
2022/05/08 08:56:31;;;;;;;12.27;11.10;;;18.50;99.90;;;;;;4991498;28;20203;-38
2022/05/08 08:58:57;;;;;;;12.10;10.93;;;18.80;99.90;;;;;;4991444;28;20231;-37
2022/05/08 09:01:23;;;;;;;11.60;10.50;;;19.00;99.90;;;;;;4989727;28;20642;-43
2022/05/08 09:03:49;;;;;;;11.98;10.70;;;19.10;99.90;;;;;;4974995;28;20196;-41
2022/05/08 09:06:16;;;;;;;11.65;10.55;;;19.30;99.90;;;;;;4993200;28;20215;-37
2022/05/08 09:08:41;;;;;;;11.52;10.43;;;19.30;99.90;;;;;;4984408;28;21024;-38
2022/05/08 09:11:07;;;;;;;10.82;9.73;;;19.10;99.90;;;;;;4995565;28;20196;-38
2022/05/08 09:13:48;;;;;;;9.73;8.73;;;19.20;99.90;;;;;;4986059;28;20200;-37
2022/05/08 09:16:14;;;;;;;9.90;8.55;;;19.50;99.90;;;;;;4972484;28;20204;-37
2022/05/08 09:18:48;;;;;;;10.95;8.73;;;19.70;99.90;;;;;;4988499;28;20219;-38
2022/05/08 09:24:08;;;;;;;8.70;8.00;;;20.00;99.90;;;;;;5005682;28;20187;-39
2022/05/08 09:26:37;;;;;;;9.32;7.68;;;20.10;99.90;;;;;;5006188;28;20206;-40
2022/05/08 09:29:04;;;;;;;7.50;6.80;;;20.40;99.90;;;;;;4988379;28;20556;-37
2022/05/08 09:31:41;;;;;;;6.93;6.00;;;20.40;99.90;;;;;;4988109;28;20275;-37
2022/05/08 09:34:07;;;;;;;5.93;5.32;;;20.60;99.90;;;;;;4985141;28;20266;-36
2022/05/08 09:36:33;;;;;;;5.75;5.07;;;20.60;99.90;;;;;;4987997;28;20207;-42
2022/05/08 09:39:01;;;;;;;6.10;5.50;;;20.80;99.90;;;;;;4988218;28;20331;-37
2022/05/08 09:41:28;;;;;;;5.45;4.95;;;20.90;99.90;;;;;;4997758;28;20223;-39
2022/05/08 09:44:08;;;;;;;6.30;5.70;;;21.00;99.90;;;;;;4987398;28;20194;-38
2022/05/08 09:46:38;;;;;;;4.82;4.32;;;21.20;99.90;;;;;;4995996;28;20203;-37
2022/05/08 09:49:06;;;;;;;7.45;4.40;;;21.40;99.90;;;;;;4992961;28;20196;-36
2022/05/08 09:51:33;;;;;;;5.22;4.72;;;21.60;99.90;;;;;;4993099;28;20220;-38
2022/05/08 09:54:00;;;;;;;5.22;4.72;;;21.70;99.90;;;;;;4977417;28;20196;-38
2022/05/08 09:56:26;;;;;;;5.53;4.75;;;21.80;99.90;;;;;;4987308;28;20204;-42
2022/05/08 09:58:52;;;;;;;5.20;4.60;;;21.80;99.90;;;;;;5005793;28;20239;-41
2022/05/08 10:01:18;;;;;;;6.07;4.40;;;22.00;99.90;;;;;;4985659;28;20191;-39
2022/05/08 10:03:46;;;;;;;4.57;4.18;;;22.00;99.90;;;;;;4996181;28;20176;-39
2022/05/08 10:06:14;;;;;;;4.40;4.00;;;22.10;99.90;;;;;;4987207;28;20216;-38
2022/05/08 10:08:42;;;;;;;4.70;3.88;;;22.10;99.90;;;;;;4986611;28;20177;-40
2022/05/08 10:13:59;;;;;;;4.93;4.40;;;22.30;99.90;;;;;;4987488;28;20220;-38
2022/05/08 10:16:52;;;;;;;4.80;4.40;;;22.20;99.90;;;;;;4987221;28;20282;-38
2022/05/08 10:19:18;;;;;;;6.18;4.22;;;21.90;99.90;;;;;;4987323;28;20221;-39
2022/05/08 10:21:56;;;;;;;3.85;3.55;;;22.10;99.90;;;;;;4987383;28;20208;-40
2022/05/08 10:24:42;;;;;;;6.30;4.13;;;22.10;99.90;;;;;;4987306;28;20199;-39
2022/05/08 10:27:11;;;;;;;4.68;4.28;;;22.40;99.90;;;;;;4987362;28;20184;-40
2022/05/08 10:29:57;;;;;;;4.60;4.18;;;22.70;99.90;;;;;;4990418;28;20212;-40
2022/05/08 10:32:31;;;;;;;5.03;4.25;;;22.70;99.90;;;;;;4978266;28;20279;-40
2022/05/08 10:35:16;;;;;;;4.55;3.95;;;22.90;99.90;;;;;;4974152;28;20207;-41
2022/05/08 10:37:46;;;;;;;6.50;4.05;;;22.90;99.90;;;;;;4990003;28;20233;-39
2022/05/08 10:40:24;;;;;;;4.80;3.97;;;23.00;99.90;;;;;;4990240;28;20184;-40
2022/05/08 10:42:57;;;;;;;4.25;3.85;;;23.10;99.90;;;;;;4991939;28;20267;-42
2022/05/08 10:45:33;;;;;;;4.30;3.90;;;23.00;99.90;;;;;;4990171;28;20206;-42
2022/05/08 10:48:01;;;;;;;4.40;3.85;;;23.10;99.90;;;;;;4990415;28;20218;-41
2022/05/08 10:50:27;;;;;;;6.85;3.80;;;23.10;99.90;;;;;;4990248;28;20175;-43
2022/05/08 10:52:53;;;;;;;5.03;3.80;;;23.00;99.90;;;;;;4990040;28;20187;-40
2022/05/08 10:55:20;;;;;;;4.65;4.25;;;23.10;99.90;;;;;;5006415;28;20200;-43
2022/05/08 10:57:49;;;;;;;4.07;3.67;;;23.10;99.90;;;;;;5008421;28;20210;-43
2022/05/08 11:00:29;;;;;;;7.53;4.40;;;23.20;99.90;;;;;;4993589;28;20188;-42
2022/05/08 11:03:00;;;;;;;4.63;3.97;;;23.00;99.90;;;;;;4978194;28;20179;-41
2022/05/08 11:05:27;;;;;;;5.13;4.70;;;23.00;99.90;;;;;;4993739;28;20203;-40
2022/05/08 11:07:57;;;;;;;4.57;4.15;;;23.00;99.90;;;;;;4993404;28;20649;-42
2022/05/08 11:10:25;;;;;;;4.65;4.25;;;23.10;99.90;;;;;;4990018;28;20177;-42
2022/05/08 11:13:10;;;;;;;4.13;3.78;;;23.10;99.90;;;;;;4991064;28;20276;-40
2022/05/08 11:15:46;;;;;;;6.05;4.22;;;23.30;99.90;;;;;;4991296;28;20291;-40
2022/05/08 11:18:15;;;;;;;4.97;4.13;;;23.50;99.90;;;;;;4993399;28;20214;-40
2022/05/08 11:20:49;;;;;;;4.60;4.20;;;23.50;99.90;;;;;;4994673;28;20183;-42
2022/05/08 11:23:18;;;;;;;5.32;3.75;;;23.60;99.90;;;;;;4990335;28;20180;-43
2022/05/08 11:25:52;;;;;;;4.57;4.18;;;23.70;99.90;;;;;;4993141;28;20219;-43
2022/05/08 11:28:21;;;;;;;5.03;4.30;;;24.00;99.90;;;;;;4993475;28;20222;-43
2022/05/08 11:30:48;;;;;;;4.30;3.90;;;24.30;99.90;;;;;;4993204;28;20188;-45
2022/05/08 11:36:09;;;;;;;4.63;4.15;;;24.30;99.90;;;;;;4993603;28;20739;-41
2022/05/08 11:38:50;;;;;;;4.38;3.97;;;24.00;99.70;;;;;;4994839;28;20291;-41
2022/05/08 11:41:18;;;;;;;4.25;3.85;;;24.00;99.90;;;;;;4995043;28;20195;-40
2022/05/08 11:43:52;;;;;;;4.32;3.90;;;24.20;99.90;;;;;;5010585;28;20211;-41
2022/05/08 11:46:36;;;;;;;4.78;4.45;;;24.30;99.90;;;;;;4993470;28;20297;-40
2022/05/08 11:49:13;;;;;;;4.65;4.10;;;24.30;99.90;;;;;;4993127;28;20183;-41
2022/05/08 11:51:41;;;;;;;5.18;4.68;;;24.30;99.90;;;;;;4993167;28;20528;-41
2022/05/08 11:54:30;;;;;;;5.20;4.80;;;24.10;99.90;;;;;;4993228;28;20215;-43
2022/05/08 11:57:16;;;;;;;4.38;3.97;;;23.90;99.90;;;;;;4993224;28;20343;-40
2022/05/08 11:59:50;;;;;;;4.88;4.38;;;23.40;99.90;;;;;;4992343;28;20703;-41
2022/05/08 12:02:16;;;;;;;5.03;4.63;;;23.60;99.90;;;;;;4980017;28;20234;-40
2022/05/08 12:04:59;;;;;;;4.97;4.57;;;24.00;99.90;;;;;;4992491;28;20205;-42
2022/05/08 12:07:25;;;;;;;4.90;4.50;;;24.30;99.90;;;;;;5009085;28;20187;-42
2022/05/08 12:09:54;;;;;;;4.60;4.20;;;24.50;99.40;;;;;;4991403;28;20184;-43
2022/05/08 12:12:25;;;;;;;6.38;4.75;;;24.50;99.10;;;;;;4992394;28;20218;-46
2022/05/08 12:14:53;;;;;;;4.88;4.47;;;24.40;99.40;;;;;;4992589;28;20203;-44
2022/05/08 12:17:19;;;;;;;4.85;4.45;;;24.30;99.90;;;;;;4992107;28;20200;-41
2022/05/08 12:19:57;;;;;;;5.00;4.50;;;24.30;99.90;;;;;;4992193;28;20196;-43
2022/05/08 12:22:28;;;;;;;4.80;4.40;;;24.10;99.90;;;;;;4989679;28;20180;-46
2022/05/08 12:24:56;;;;;;;5.68;4.65;;;23.90;99.90;;;;;;4993444;28;20210;-42
2022/05/08 12:27:22;;;;;;;4.80;4.40;;;23.80;99.90;;;;;;4989614;28;20211;-44
2022/05/08 12:29:48;;;;;;;4.47;4.07;;;23.70;99.90;;;;;;5008097;28;20180;-44
2022/05/08 12:32:15;;;;;;;4.68;4.28;;;23.60;99.90;;;;;;4988908;28;20673;-39
2022/05/08 12:34:43;;;;;;;5.28;4.03;;;23.60;99.90;;;;;;4974891;28;20181;-40
2022/05/08 12:37:10;;;;;;;4.53;4.22;;;23.70;99.90;;;;;;4990404;28;20208;-39
2022/05/08 12:39:36;;;;;;;4.80;4.40;;;23.60;99.90;;;;;;4975964;28;20208;-37
2022/05/08 12:42:03;;;;;;;8.63;4.40;;;23.10;99.90;;;;;;4991431;28;20271;-38
2022/05/08 12:44:29;;;;;;;4.10;3.70;;;22.60;99.90;;;;;;4992943;28;20549;-40
2022/05/08 12:46:54;;;;;;;3.92;3.55;;;22.80;99.90;;;;;;4992641;28;20175;-38
2022/05/08 12:49:20;;;;;;;5.55;4.10;;;23.10;99.90;;;;;;4990782;28;20231;-38
2022/05/08 12:51:46;;;;;;;4.68;3.90;;;23.20;99.90;;;;;;4992046;28;20176;-40
2022/05/08 12:54:12;;;;;;;4.50;4.10;;;23.00;99.90;;;;;;4991672;28;20200;-38
2022/05/08 12:56:38;;;;;;;4.10;3.75;;;23.00;99.90;;;;;;4990281;28;20728;-41
2022/05/08 13:01:49;;;;;;;4.53;4.10;;;22.90;99.90;;;;;;4993349;28;20168;-39
2022/05/08 13:04:15;;;;;;;4.22;3.90;;;22.90;99.90;;;;;;4991883;28;20191;-39
2022/05/08 13:06:41;;;;;;;4.30;3.90;;;22.90;99.90;;;;;;4976563;28;20254;-38
2022/05/08 13:09:07;;;;;;;4.53;3.95;;;23.00;99.90;;;;;;4993243;28;20215;-39
2022/05/08 13:11:36;;;;;;;4.55;3.58;;;23.00;99.90;;;;;;5003949;28;20188;-40
2022/05/08 13:14:03;;;;;;;3.95;3.55;;;22.90;99.90;;;;;;4989407;28;20258;-41